sensor_id;sensor_type;location;lat;lon;timestamp;temperature;humidity
13808;DHT22;40769;51.512;5.494;2022-08-01T00:00:07;22.10;99.90
13808;DHT22;40769;51.512;5.494;2022-08-01T00:02:33;22.20;99.90
13808;DHT22;40769;51.512;5.494;2022-08-01T00:04:58;22.10;99.90
13808;DHT22;40769;51.512;5.494;2022-08-01T00:07:25;22.10;99.90
13808;DHT22;40769;51.512;5.494;2022-08-01T00:09:51;21.60;99.90
13808;DHT22;40769;51.512;5.494;2022-08-01T00:12:16;22.10;99.90
13808;DHT22;40769;51.512;5.494;2022-08-01T00:14:42;22.10;99.90
13808;DHT22;40769;51.512;5.494;2022-08-01T00:17:07;22.00;99.90
13808;DHT22;40769;51.512;5.494;2022-08-01T00:19:34;22.10;99.90
13808;DHT22;40769;51.512;5.494;2022-08-01T00:21:59;22.10;99.90
13808;DHT22;40769;51.512;5.494;2022-08-01T00:24:25;22.10;99.90
13808;DHT22;40769;51.512;5.494;2022-08-01T00:26:51;22.10;99.90
13808;DHT22;40769;51.512;5.494;2022-08-01T00:29:16;22.00;99.90
13808;DHT22;40769;51.512;5.494;2022-08-01T00:31:42;22.20;99.90
13808;DHT22;40769;51.512;5.494;2022-08-01T00:34:08;22.20;99.90
13808;DHT22;40769;51.512;5.494;2022-08-01T00:36:33;22.20;99.90
13808;DHT22;40769;51.512;5.494;2022-08-01T00:38:59;22.30;99.90
13808;DHT22;40769;51.512;5.494;2022-08-01T00:41:25;22.30;99.90
13808;DHT22;40769;51.512;5.494;2022-08-01T00:43:50;22.30;99.90
13808;DHT22;40769;51.512;5.494;2022-08-01T00:46:16;22.30;99.90
13808;DHT22;40769;51.512;5.494;2022-08-01T00:48:41;22.30;99.90
13808;DHT22;40769;51.512;5.494;2022-08-01T00:51:07;22.30;99.90
13808;DHT22;40769;51.512;5.494;2022-08-01T00:53:33;22.30;99.90
13808;DHT22;40769;51.512;5.494;2022-08-01T00:55:59;22.30;99.90
13808;DHT22;40769;51.512;5.494;2022-08-01T00:58:25;22.20;99.90
13808;DHT22;40769;51.512;5.494;2022-08-01T01:00:51;22.20;99.90
13808;DHT22;40769;51.512;5.494;2022-08-01T01:03:16;22.20;99.90
13808;DHT22;40769;51.512;5.494;2022-08-01T01:05:51;22.10;99.90
13808;DHT22;40769;51.512;5.494;2022-08-01T01:08:26;22.10;99.90
13808;DHT22;40769;51.512;5.494;2022-08-01T01:10:57;22.20;99.90
13808;DHT22;40769;51.512;5.494;2022-08-01T01:13:38;22.10;99.90
13808;DHT22;40769;51.512;5.494;2022-08-01T01:16:10;22.10;99.90
13808;DHT22;40769;51.512;5.494;2022-08-01T01:18:55;22.10;99.90
13808;DHT22;40769;51.512;5.494;2022-08-01T01:32:09;21.80;99.90
13808;DHT22;40769;51.512;5.494;2022-08-01T01:34:37;22.00;99.90
13808;DHT22;40769;51.512;5.494;2022-08-01T01:37:11;21.70;99.90
13808;DHT22;40769;51.512;5.494;2022-08-01T01:39:38;21.70;99.90
13808;DHT22;40769;51.512;5.494;2022-08-01T01:42:06;21.70;99.90
13808;DHT22;40769;51.512;5.494;2022-08-01T01:44:32;21.70;99.90
13808;DHT22;40769;51.512;5.494;2022-08-01T01:46:59;21.70;99.90
13808;DHT22;40769;51.512;5.494;2022-08-01T01:49:27;21.70;99.90
13808;DHT22;40769;51.512;5.494;2022-08-01T01:51:55;21.70;99.90
13808;DHT22;40769;51.512;5.494;2022-08-01T01:54:24;21.50;99.90
13808;DHT22;40769;51.512;5.494;2022-08-01T01:56:56;21.70;99.90
13808;DHT22;40769;51.512;5.494;2022-08-01T01:59:27;21.70;99.90
13808;DHT22;40769;51.512;5.494;2022-08-01T02:01:56;21.70;99.90
13808;DHT22;40769;51.512;5.494;2022-08-01T02:04:23;21.70;99.90
13808;DHT22;40769;51.512;5.494;2022-08-01T02:06:51;21.60;99.90
13808;DHT22;40769;51.512;5.494;2022-08-01T02:09:19;21.80;99.90
13808;DHT22;40769;51.512;5.494;2022-08-01T02:11:49;21.60;99.90
13808;DHT22;40769;51.512;5.494;2022-08-01T02:14:17;21.60;99.90
13808;DHT22;40769;51.512;5.494;2022-08-01T02:16:45;21.60;99.90
13808;DHT22;40769;51.512;5.494;2022-08-01T02:19:13;21.60;99.90
13808;DHT22;40769;51.512;5.494;2022-08-01T02:21:42;21.70;99.90
13808;DHT22;40769;51.512;5.494;2022-08-01T02:24:19;21.60;99.90
13808;DHT22;40769;51.512;5.494;2022-08-01T02:26:51;21.60;99.90
13808;DHT22;40769;51.512;5.494;2022-08-01T02:29:24;21.60;99.90
13808;DHT22;40769;51.512;5.494;2022-08-01T02:31:54;21.60;99.90
13808;DHT22;40769;51.512;5.494;2022-08-01T02:34:21;21.50;99.90
13808;DHT22;40769;51.512;5.494;2022-08-01T02:36:48;21.70;99.90
13808;DHT22;40769;51.512;5.494;2022-08-01T02:39:17;21.70;99.90
13808;DHT22;40769;51.512;5.494;2022-08-01T02:41:47;21.70;99.90
13808;DHT22;40769;51.512;5.494;2022-08-01T02:44:24;21.70;99.90
13808;DHT22;40769;51.512;5.494;2022-08-01T02:46:52;21.70;99.90
13808;DHT22;40769;51.512;5.494;2022-08-01T02:49:20;21.70;99.90
13808;DHT22;40769;51.512;5.494;2022-08-01T02:51:48;21.70;99.90
13808;DHT22;40769;51.512;5.494;2022-08-01T02:54:16;21.70;99.90
13808;DHT22;40769;51.512;5.494;2022-08-01T02:56:44;21.70;99.90
13808;DHT22;40769;51.512;5.494;2022-08-01T02:59:15;21.70;99.90
13808;DHT22;40769;51.512;5.494;2022-08-01T03:01:42;21.70;99.90
13808;DHT22;40769;51.512;5.494;2022-08-01T03:04:10;21.70;99.90
13808;DHT22;40769;51.512;5.494;2022-08-01T03:06:37;21.70;99.90
13808;DHT22;40769;51.512;5.494;2022-08-01T03:09:03;21.60;99.90
13808;DHT22;40769;51.512;5.494;2022-08-01T03:11:31;21.60;99.90
13808;DHT22;40769;51.512;5.494;2022-08-01T03:13:59;21.60;99.90
13808;DHT22;40769;51.512;5.494;2022-08-01T03:16:27;21.60;99.90
13808;DHT22;40769;51.512;5.494;2022-08-01T03:18:55;21.70;99.90
13808;DHT22;40769;51.512;5.494;2022-08-01T03:21:23;21.70;99.90
13808;DHT22;40769;51.512;5.494;2022-08-01T03:23:53;21.60;99.90
13808;DHT22;40769;51.512;5.494;2022-08-01T03:26:28;21.70;99.90
13808;DHT22;40769;51.512;5.494;2022-08-01T03:28:57;21.70;99.90
13808;DHT22;40769;51.512;5.494;2022-08-01T03:31:24;21.60;99.90
13808;DHT22;40769;51.512;5.494;2022-08-01T03:33:50;21.70;99.90
13808;DHT22;40769;51.512;5.494;2022-08-01T03:36:17;21.80;99.90
13808;DHT22;40769;51.512;5.494;2022-08-01T03:38:47;21.60;99.90
13808;DHT22;40769;51.512;5.494;2022-08-01T03:41:20;21.70;99.90
13808;DHT22;40769;51.512;5.494;2022-08-01T03:43:52;21.70;99.90
13808;DHT22;40769;51.512;5.494;2022-08-01T03:46:26;21.70;99.90
13808;DHT22;40769;51.512;5.494;2022-08-01T03:48:55;21.80;99.90
13808;DHT22;40769;51.512;5.494;2022-08-01T03:51:23;21.70;99.90
13808;DHT22;40769;51.512;5.494;2022-08-01T03:53:50;21.70;99.90
13808;DHT22;40769;51.512;5.494;2022-08-01T03:56:19;21.70;99.90
13808;DHT22;40769;51.512;5.494;2022-08-01T03:58:45;21.70;99.90
13808;DHT22;40769;51.512;5.494;2022-08-01T04:01:11;21.70;99.90
13808;DHT22;40769;51.512;5.494;2022-08-01T04:03:38;21.70;99.90
13808;DHT22;40769;51.512;5.494;2022-08-01T04:06:05;21.70;99.90
13808;DHT22;40769;51.512;5.494;2022-08-01T04:08:37;21.60;99.90
13808;DHT22;40769;51.512;5.494;2022-08-01T04:11:04;21.60;99.90
13808;DHT22;40769;51.512;5.494;2022-08-01T04:13:31;21.60;99.90
13808;DHT22;40769;51.512;5.494;2022-08-01T04:15:56;21.60;99.90
13808;DHT22;40769;51.512;5.494;2022-08-01T04:18:22;21.60;99.90
13808;DHT22;40769;51.512;5.494;2022-08-01T04:20:47;21.60;99.90
13808;DHT22;40769;51.512;5.494;2022-08-01T04:23:16;21.80;99.90
13808;DHT22;40769;51.512;5.494;2022-08-01T04:25:43;21.70;99.90
13808;DHT22;40769;51.512;5.494;2022-08-01T04:28:17;21.70;99.90
13808;DHT22;40769;51.512;5.494;2022-08-01T04:30:46;21.70;99.90
13808;DHT22;40769;51.512;5.494;2022-08-01T04:33:15;21.70;99.90
13808;DHT22;40769;51.512;5.494;2022-08-01T04:35:44;21.70;99.90
13808;DHT22;40769;51.512;5.494;2022-08-01T04:38:14;21.60;99.90
13808;DHT22;40769;51.512;5.494;2022-08-01T04:40:42;21.60;99.90
13808;DHT22;40769;51.512;5.494;2022-08-01T04:43:09;21.70;99.90
13808;DHT22;40769;51.512;5.494;2022-08-01T04:45:35;21.70;99.90
13808;DHT22;40769;51.512;5.494;2022-08-01T04:48:02;21.60;99.90
13808;DHT22;40769;51.512;5.494;2022-08-01T04:50:32;21.60;99.90
13808;DHT22;40769;51.512;5.494;2022-08-01T04:52:57;21.20;99.90
13808;DHT22;40769;51.512;5.494;2022-08-01T04:55:23;21.70;99.90
13808;DHT22;40769;51.512;5.494;2022-08-01T04:57:48;21.70;99.90
13808;DHT22;40769;51.512;5.494;2022-08-01T05:00:14;21.70;99.90
13808;DHT22;40769;51.512;5.494;2022-08-01T05:02:41;21.70;99.90
13808;DHT22;40769;51.512;5.494;2022-08-01T05:05:07;21.80;99.90
13808;DHT22;40769;51.512;5.494;2022-08-01T05:07:33;21.80;99.90
13808;DHT22;40769;51.512;5.494;2022-08-01T05:10:02;21.80;99.90
13808;DHT22;40769;51.512;5.494;2022-08-01T05:12:28;21.80;99.90
13808;DHT22;40769;51.512;5.494;2022-08-01T05:14:54;21.80;99.90
13808;DHT22;40769;51.512;5.494;2022-08-01T05:17:19;21.80;99.90
13808;DHT22;40769;51.512;5.494;2022-08-01T05:19:45;21.90;99.90
13808;DHT22;40769;51.512;5.494;2022-08-01T05:22:11;21.90;99.90
13808;DHT22;40769;51.512;5.494;2022-08-01T05:24:40;21.80;99.90
13808;DHT22;40769;51.512;5.494;2022-08-01T05:27:06;21.80;99.90
13808;DHT22;40769;51.512;5.494;2022-08-01T05:29:33;21.80;99.90
13808;DHT22;40769;51.512;5.494;2022-08-01T05:31:59;21.90;99.90
13808;DHT22;40769;51.512;5.494;2022-08-01T05:34:25;21.90;99.90
13808;DHT22;40769;51.512;5.494;2022-08-01T05:36:50;21.90;99.90
13808;DHT22;40769;51.512;5.494;2022-08-01T05:39:16;22.00;99.90
13808;DHT22;40769;51.512;5.494;2022-08-01T05:41:42;22.00;99.90
13808;DHT22;40769;51.512;5.494;2022-08-01T05:44:08;22.10;99.90
13808;DHT22;40769;51.512;5.494;2022-08-01T05:46:34;22.10;99.90
13808;DHT22;40769;51.512;5.494;2022-08-01T05:49:01;22.10;99.90
13808;DHT22;40769;51.512;5.494;2022-08-01T05:51:27;22.10;99.90
13808;DHT22;40769;51.512;5.494;2022-08-01T05:53:53;22.20;99.90
13808;DHT22;40769;51.512;5.494;2022-08-01T05:56:19;22.20;99.90
13808;DHT22;40769;51.512;5.494;2022-08-01T05:58:45;22.20;99.90
13808;DHT22;40769;51.512;5.494;2022-08-01T06:01:11;22.20;99.90
13808;DHT22;40769;51.512;5.494;2022-08-01T06:03:37;22.20;99.90
13808;DHT22;40769;51.512;5.494;2022-08-01T06:06:03;22.30;99.90
13808;DHT22;40769;51.512;5.494;2022-08-01T06:08:29;22.30;99.90
13808;DHT22;40769;51.512;5.494;2022-08-01T06:10:55;22.30;99.90
13808;DHT22;40769;51.512;5.494;2022-08-01T06:13:21;22.30;99.90
13808;DHT22;40769;51.512;5.494;2022-08-01T06:15:47;22.30;99.90
13808;DHT22;40769;51.512;5.494;2022-08-01T06:18:13;22.40;99.90
13808;DHT22;40769;51.512;5.494;2022-08-01T06:20:39;22.40;99.90
13808;DHT22;40769;51.512;5.494;2022-08-01T06:23:05;22.40;99.90
13808;DHT22;40769;51.512;5.494;2022-08-01T06:25:31;22.40;99.90
13808;DHT22;40769;51.512;5.494;2022-08-01T06:27:56;22.50;99.90
13808;DHT22;40769;51.512;5.494;2022-08-01T06:30:22;22.50;99.90
13808;DHT22;40769;51.512;5.494;2022-08-01T06:32:47;22.60;99.90
13808;DHT22;40769;51.512;5.494;2022-08-01T06:35:17;22.60;99.90
13808;DHT22;40769;51.512;5.494;2022-08-01T06:37:42;22.60;99.90
13808;DHT22;40769;51.512;5.494;2022-08-01T06:40:11;22.60;99.90
13808;DHT22;40769;51.512;5.494;2022-08-01T06:42:37;22.60;99.90
13808;DHT22;40769;51.512;5.494;2022-08-01T06:45:10;22.70;99.90
13808;DHT22;40769;51.512;5.494;2022-08-01T06:47:39;22.70;99.90
13808;DHT22;40769;51.512;5.494;2022-08-01T06:50:07;22.70;99.90
13808;DHT22;40769;51.512;5.494;2022-08-01T06:52:33;22.80;99.90
13808;DHT22;40769;51.512;5.494;2022-08-01T06:54:59;22.80;99.90
13808;DHT22;40769;51.512;5.494;2022-08-01T06:57:25;22.90;99.90
13808;DHT22;40769;51.512;5.494;2022-08-01T06:59:51;23.00;99.90
13808;DHT22;40769;51.512;5.494;2022-08-01T07:02:17;23.10;99.90
13808;DHT22;40769;51.512;5.494;2022-08-01T07:04:42;23.20;99.90
13808;DHT22;40769;51.512;5.494;2022-08-01T07:07:08;23.40;99.90
13808;DHT22;40769;51.512;5.494;2022-08-01T07:09:34;23.50;99.90
13808;DHT22;40769;51.512;5.494;2022-08-01T07:11:59;23.30;99.90
13808;DHT22;40769;51.512;5.494;2022-08-01T07:14:25;23.70;99.90
13808;DHT22;40769;51.512;5.494;2022-08-01T07:16:50;24.00;99.90
13808;DHT22;40769;51.512;5.494;2022-08-01T07:19:16;24.00;99.90
13808;DHT22;40769;51.512;5.494;2022-08-01T07:21:42;24.20;99.90
13808;DHT22;40769;51.512;5.494;2022-08-01T07:24:10;24.40;99.90
13808;DHT22;40769;51.512;5.494;2022-08-01T07:26:36;24.50;99.90
13808;DHT22;40769;51.512;5.494;2022-08-01T07:29:02;24.70;99.90
13808;DHT22;40769;51.512;5.494;2022-08-01T07:31:28;24.80;99.90
13808;DHT22;40769;51.512;5.494;2022-08-01T07:33:54;24.90;99.90
13808;DHT22;40769;51.512;5.494;2022-08-01T07:36:19;25.00;99.90
13808;DHT22;40769;51.512;5.494;2022-08-01T07:38:45;25.30;99.90
13808;DHT22;40769;51.512;5.494;2022-08-01T07:41:11;25.40;99.90
13808;DHT22;40769;51.512;5.494;2022-08-01T07:43:37;25.70;99.90
13808;DHT22;40769;51.512;5.494;2022-08-01T07:46:06;25.80;99.90
13808;DHT22;40769;51.512;5.494;2022-08-01T07:48:32;25.90;99.90
13808;DHT22;40769;51.512;5.494;2022-08-01T07:50:58;25.90;99.90
13808;DHT22;40769;51.512;5.494;2022-08-01T07:53:23;25.90;99.90
13808;DHT22;40769;51.512;5.494;2022-08-01T07:55:49;25.90;99.90
13808;DHT22;40769;51.512;5.494;2022-08-01T07:58:15;26.00;99.90
13808;DHT22;40769;51.512;5.494;2022-08-01T08:00:41;26.00;99.90
13808;DHT22;40769;51.512;5.494;2022-08-01T08:03:07;25.90;99.90
13808;DHT22;40769;51.512;5.494;2022-08-01T08:05:32;25.90;99.90
13808;DHT22;40769;51.512;5.494;2022-08-01T08:08:01;25.90;99.90
13808;DHT22;40769;51.512;5.494;2022-08-01T08:10:27;25.80;99.90
13808;DHT22;40769;51.512;5.494;2022-08-01T08:12:52;25.80;99.90
13808;DHT22;40769;51.512;5.494;2022-08-01T08:15:21;25.80;99.90
13808;DHT22;40769;51.512;5.494;2022-08-01T08:17:47;25.90;99.90
13808;DHT22;40769;51.512;5.494;2022-08-01T08:20:12;26.10;99.90
13808;DHT22;40769;51.512;5.494;2022-08-01T08:22:38;26.30;99.90
13808;DHT22;40769;51.512;5.494;2022-08-01T08:25:04;26.50;99.90
13808;DHT22;40769;51.512;5.494;2022-08-01T08:27:30;26.70;99.90
13808;DHT22;40769;51.512;5.494;2022-08-01T08:29:56;26.90;99.90
13808;DHT22;40769;51.512;5.494;2022-08-01T08:32:21;27.00;99.90
13808;DHT22;40769;51.512;5.494;2022-08-01T08:34:47;27.20;99.90
13808;DHT22;40769;51.512;5.494;2022-08-01T08:37:12;27.20;99.90
13808;DHT22;40769;51.512;5.494;2022-08-01T08:39:38;27.40;99.90
13808;DHT22;40769;51.512;5.494;2022-08-01T08:42:07;27.50;99.90
13808;DHT22;40769;51.512;5.494;2022-08-01T08:44:34;27.40;99.90
13808;DHT22;40769;51.512;5.494;2022-08-01T08:47:02;27.40;99.90
13808;DHT22;40769;51.512;5.494;2022-08-01T08:49:32;27.30;99.90
13808;DHT22;40769;51.512;5.494;2022-08-01T08:52:02;27.60;99.90
13808;DHT22;40769;51.512;5.494;2022-08-01T08:54:29;27.50;99.90
13808;DHT22;40769;51.512;5.494;2022-08-01T08:56:56;27.70;99.90
13808;DHT22;40769;51.512;5.494;2022-08-01T08:59:22;28.00;99.90
13808;DHT22;40769;51.512;5.494;2022-08-01T09:01:51;28.30;99.90
13808;DHT22;40769;51.512;5.494;2022-08-01T09:04:17;28.60;99.90
13808;DHT22;40769;51.512;5.494;2022-08-01T09:06:46;28.90;99.90
13808;DHT22;40769;51.512;5.494;2022-08-01T09:09:11;29.10;99.90
13808;DHT22;40769;51.512;5.494;2022-08-01T09:11:37;29.20;99.90
13808;DHT22;40769;51.512;5.494;2022-08-01T09:14:09;29.30;99.90
13808;DHT22;40769;51.512;5.494;2022-08-01T09:16:36;29.40;99.90
13808;DHT22;40769;51.512;5.494;2022-08-01T09:19:19;29.60;99.90
13808;DHT22;40769;51.512;5.494;2022-08-01T09:21:59;29.80;99.90
13808;DHT22;40769;51.512;5.494;2022-08-01T09:24:26;30.10;99.90
13808;DHT22;40769;51.512;5.494;2022-08-01T09:26:53;30.40;99.90
13808;DHT22;40769;51.512;5.494;2022-08-01T09:29:25;30.50;99.90
13808;DHT22;40769;51.512;5.494;2022-08-01T09:31:51;30.90;99.90
13808;DHT22;40769;51.512;5.494;2022-08-01T09:34:25;31.10;99.90
13808;DHT22;40769;51.512;5.494;2022-08-01T09:36:56;31.30;99.90
13808;DHT22;40769;51.512;5.494;2022-08-01T09:39:28;31.40;99.90
13808;DHT22;40769;51.512;5.494;2022-08-01T09:41:55;31.40;99.90
13808;DHT22;40769;51.512;5.494;2022-08-01T09:44:37;31.30;99.90
13808;DHT22;40769;51.512;5.494;2022-08-01T09:47:03;31.20;99.90
13808;DHT22;40769;51.512;5.494;2022-08-01T09:49:34;31.10;99.90
13808;DHT22;40769;51.512;5.494;2022-08-01T09:52:19;31.10;99.90
13808;DHT22;40769;51.512;5.494;2022-08-01T09:54:59;31.00;99.90
13808;DHT22;40769;51.512;5.494;2022-08-01T09:57:25;30.90;99.90
13808;DHT22;40769;51.512;5.494;2022-08-01T09:59:53;30.80;99.90
13808;DHT22;40769;51.512;5.494;2022-08-01T10:02:31;30.70;99.90
13808;DHT22;40769;51.512;5.494;2022-08-01T10:04:58;30.60;99.90
13808;DHT22;40769;51.512;5.494;2022-08-01T10:07:24;30.70;99.90
13808;DHT22;40769;51.512;5.494;2022-08-01T10:09:49;30.70;99.90
13808;DHT22;40769;51.512;5.494;2022-08-01T10:12:20;30.80;99.90
13808;DHT22;40769;51.512;5.494;2022-08-01T10:14:50;30.80;99.90
13808;DHT22;40769;51.512;5.494;2022-08-01T10:17:18;30.70;99.90
13808;DHT22;40769;51.512;5.494;2022-08-01T10:19:44;30.50;99.90
13808;DHT22;40769;51.512;5.494;2022-08-01T10:22:12;30.40;99.90
13808;DHT22;40769;51.512;5.494;2022-08-01T10:24:47;30.20;99.90
13808;DHT22;40769;51.512;5.494;2022-08-01T10:27:15;30.20;99.90
13808;DHT22;40769;51.512;5.494;2022-08-01T10:29:42;30.20;99.90
13808;DHT22;40769;51.512;5.494;2022-08-01T10:32:09;30.40;99.90
13808;DHT22;40769;51.512;5.494;2022-08-01T10:34:36;30.40;99.90
13808;DHT22;40769;51.512;5.494;2022-08-01T10:37:04;30.40;99.90
13808;DHT22;40769;51.512;5.494;2022-08-01T10:39:31;30.40;99.90
13808;DHT22;40769;51.512;5.494;2022-08-01T10:41:56;30.50;99.90
13808;DHT22;40769;51.512;5.494;2022-08-01T10:44:24;30.50;99.90
13808;DHT22;40769;51.512;5.494;2022-08-01T10:46:54;30.70;99.90
13808;DHT22;40769;51.512;5.494;2022-08-01T10:49:22;30.90;99.90
13808;DHT22;40769;51.512;5.494;2022-08-01T10:51:48;31.30;99.90
13808;DHT22;40769;51.512;5.494;2022-08-01T10:54:14;31.00;99.90
13808;DHT22;40769;51.512;5.494;2022-08-01T10:56:44;30.90;99.90
13808;DHT22;40769;51.512;5.494;2022-08-01T10:59:10;30.50;99.90
13808;DHT22;40769;51.512;5.494;2022-08-01T11:01:39;30.30;99.90
13808;DHT22;40769;51.512;5.494;2022-08-01T11:04:10;30.10;99.90
13808;DHT22;40769;51.512;5.494;2022-08-01T11:06:40;29.90;99.90
13808;DHT22;40769;51.512;5.494;2022-08-01T11:11:59;30.00;99.90
13808;DHT22;40769;51.512;5.494;2022-08-01T11:14:25;30.10;99.90
13808;DHT22;40769;51.512;5.494;2022-08-01T11:16:51;30.20;99.90
13808;DHT22;40769;51.512;5.494;2022-08-01T11:19:17;30.20;99.90
13808;DHT22;40769;51.512;5.494;2022-08-01T11:27:17;30.30;99.90
13808;DHT22;40769;51.512;5.494;2022-08-01T11:29:43;30.30;99.90
13808;DHT22;40769;51.512;5.494;2022-08-01T11:32:26;30.30;99.90
13808;DHT22;40769;51.512;5.494;2022-08-01T11:34:53;30.30;99.90
13808;DHT22;40769;51.512;5.494;2022-08-01T11:37:26;30.40;99.90
13808;DHT22;40769;51.512;5.494;2022-08-01T11:42:39;30.50;99.90
13808;DHT22;40769;51.512;5.494;2022-08-01T11:45:06;30.50;99.90
13808;DHT22;40769;51.512;5.494;2022-08-01T11:53:05;30.90;99.90
13808;DHT22;40769;51.512;5.494;2022-08-01T11:55:31;31.10;99.90
13808;DHT22;40769;51.512;5.494;2022-08-01T11:58:07;31.20;99.90
13808;DHT22;40769;51.512;5.494;2022-08-01T12:00:33;31.40;99.90
13808;DHT22;40769;51.512;5.494;2022-08-01T12:03:00;31.60;99.90
13808;DHT22;40769;51.512;5.494;2022-08-01T12:05:27;31.80;99.90
13808;DHT22;40769;51.512;5.494;2022-08-01T12:07:56;32.00;99.90
13808;DHT22;40769;51.512;5.494;2022-08-01T12:10:25;32.20;99.90
13808;DHT22;40769;51.512;5.494;2022-08-01T12:12:58;32.30;99.90
13808;DHT22;40769;51.512;5.494;2022-08-01T12:15:34;32.50;99.90
13808;DHT22;40769;51.512;5.494;2022-08-01T12:18:02;32.70;99.90
13808;DHT22;40769;51.512;5.494;2022-08-01T12:20:33;32.80;99.90
13808;DHT22;40769;51.512;5.494;2022-08-01T12:23:04;32.90;99.90
13808;DHT22;40769;51.512;5.494;2022-08-01T12:25:33;33.00;99.90
13808;DHT22;40769;51.512;5.494;2022-08-01T12:28:00;33.00;99.90
13808;DHT22;40769;51.512;5.494;2022-08-01T12:30:27;33.00;99.90
13808;DHT22;40769;51.512;5.494;2022-08-01T12:32:53;32.90;99.90
13808;DHT22;40769;51.512;5.494;2022-08-01T12:35:24;32.80;99.90
13808;DHT22;40769;51.512;5.494;2022-08-01T12:37:59;32.60;99.90
13808;DHT22;40769;51.512;5.494;2022-08-01T12:40:30;32.40;99.90
13808;DHT22;40769;51.512;5.494;2022-08-01T12:42:58;32.10;99.90
13808;DHT22;40769;51.512;5.494;2022-08-01T12:45:26;31.80;99.90
13808;DHT22;40769;51.512;5.494;2022-08-01T12:47:53;31.80;99.90
13808;DHT22;40769;51.512;5.494;2022-08-01T12:50:20;31.60;99.90
13808;DHT22;40769;51.512;5.494;2022-08-01T12:52:47;31.50;99.90
13808;DHT22;40769;51.512;5.494;2022-08-01T12:55:24;31.40;99.90
13808;DHT22;40769;51.512;5.494;2022-08-01T12:58:10;31.40;99.90
13808;DHT22;40769;51.512;5.494;2022-08-01T13:00:37;31.20;99.90
13808;DHT22;40769;51.512;5.494;2022-08-01T13:03:10;31.10;99.90
13808;DHT22;40769;51.512;5.494;2022-08-01T13:05:55;30.90;99.90
13808;DHT22;40769;51.512;5.494;2022-08-01T13:11:04;30.50;99.90
13808;DHT22;40769;51.512;5.494;2022-08-01T13:13:46;30.40;99.90
13808;DHT22;40769;51.512;5.494;2022-08-01T13:16:25;30.20;99.90
13808;DHT22;40769;51.512;5.494;2022-08-01T13:18:56;30.00;99.90
13808;DHT22;40769;51.512;5.494;2022-08-01T13:21:28;29.90;99.90
13808;DHT22;40769;51.512;5.494;2022-08-01T13:24:27;29.80;99.90
13808;DHT22;40769;51.512;5.494;2022-08-01T13:26:56;29.70;99.90
13808;DHT22;40769;51.512;5.494;2022-08-01T13:29:35;29.80;99.90
13808;DHT22;40769;51.512;5.494;2022-08-01T13:32:19;29.80;99.90
13808;DHT22;40769;51.512;5.494;2022-08-01T13:34:45;29.80;99.90
13808;DHT22;40769;51.512;5.494;2022-08-01T13:37:11;29.80;99.90
13808;DHT22;40769;51.512;5.494;2022-08-01T13:39:36;29.90;99.90
13808;DHT22;40769;51.512;5.494;2022-08-01T13:42:14;29.90;99.90
13808;DHT22;40769;51.512;5.494;2022-08-01T13:44:41;30.10;99.90
13808;DHT22;40769;51.512;5.494;2022-08-01T13:47:07;30.10;99.90
13808;DHT22;40769;51.512;5.494;2022-08-01T13:49:33;30.20;99.90
13808;DHT22;40769;51.512;5.494;2022-08-01T13:52:00;30.20;99.90
13808;DHT22;40769;51.512;5.494;2022-08-01T13:54:26;30.30;99.90
13808;DHT22;40769;51.512;5.494;2022-08-01T13:56:53;30.50;99.90
13808;DHT22;40769;51.512;5.494;2022-08-01T13:59:19;30.70;99.90
13808;DHT22;40769;51.512;5.494;2022-08-01T14:01:45;30.90;99.90
13808;DHT22;40769;51.512;5.494;2022-08-01T14:04:10;31.10;99.90
13808;DHT22;40769;51.512;5.494;2022-08-01T14:06:36;31.20;99.90
13808;DHT22;40769;51.512;5.494;2022-08-01T14:09:03;31.40;99.90
13808;DHT22;40769;51.512;5.494;2022-08-01T14:11:29;31.50;99.90
13808;DHT22;40769;51.512;5.494;2022-08-01T14:13:54;31.50;99.90
13808;DHT22;40769;51.512;5.494;2022-08-01T14:16:20;31.50;99.90
13808;DHT22;40769;51.512;5.494;2022-08-01T14:18:45;31.40;99.90
13808;DHT22;40769;51.512;5.494;2022-08-01T14:21:11;31.30;99.90
13808;DHT22;40769;51.512;5.494;2022-08-01T14:23:38;31.20;99.90
13808;DHT22;40769;51.512;5.494;2022-08-01T14:26:04;31.20;99.90
13808;DHT22;40769;51.512;5.494;2022-08-01T14:28:29;31.40;99.90
13808;DHT22;40769;51.512;5.494;2022-08-01T14:30:56;31.50;99.90
13808;DHT22;40769;51.512;5.494;2022-08-01T14:33:22;31.60;99.90
13808;DHT22;40769;51.512;5.494;2022-08-01T14:35:48;31.70;99.90
13808;DHT22;40769;51.512;5.494;2022-08-01T14:38:14;31.70;99.60
13808;DHT22;40769;51.512;5.494;2022-08-01T14:40:39;31.70;99.50
13808;DHT22;40769;51.512;5.494;2022-08-01T14:43:08;31.60;99.10
13808;DHT22;40769;51.512;5.494;2022-08-01T14:45:34;31.50;99.00
13808;DHT22;40769;51.512;5.494;2022-08-01T14:48:00;31.30;99.30
13808;DHT22;40769;51.512;5.494;2022-08-01T14:50:26;31.20;99.30
13808;DHT22;40769;51.512;5.494;2022-08-01T14:52:53;31.20;99.80
13808;DHT22;40769;51.512;5.494;2022-08-01T14:55:19;31.20;99.90
13808;DHT22;40769;51.512;5.494;2022-08-01T14:57:50;31.40;99.90
13808;DHT22;40769;51.512;5.494;2022-08-01T15:00:16;31.50;99.50
13808;DHT22;40769;51.512;5.494;2022-08-01T15:02:42;31.70;99.50
13808;DHT22;40769;51.512;5.494;2022-08-01T15:05:08;31.80;99.30
13808;DHT22;40769;51.512;5.494;2022-08-01T15:07:35;32.00;99.40
13808;DHT22;40769;51.512;5.494;2022-08-01T15:10:01;32.20;98.70
13808;DHT22;40769;51.512;5.494;2022-08-01T15:12:27;32.50;99.00
13808;DHT22;40769;51.512;5.494;2022-08-01T15:14:53;32.70;98.30
13808;DHT22;40769;51.512;5.494;2022-08-01T15:17:19;32.90;98.50
13808;DHT22;40769;51.512;5.494;2022-08-01T15:19:47;33.20;98.60
13808;DHT22;40769;51.512;5.494;2022-08-01T15:22:13;33.30;98.40
13808;DHT22;40769;51.512;5.494;2022-08-01T15:24:39;33.60;97.90
13808;DHT22;40769;51.512;5.494;2022-08-01T15:27:05;33.90;97.90
13808;DHT22;40769;51.512;5.494;2022-08-01T15:29:31;34.00;97.20
13808;DHT22;40769;51.512;5.494;2022-08-01T15:31:58;34.20;94.50
13808;DHT22;40769;51.512;5.494;2022-08-01T15:34:24;34.20;94.20
13808;DHT22;40769;51.512;5.494;2022-08-01T15:36:51;34.30;95.20
13808;DHT22;40769;51.512;5.494;2022-08-01T15:39:17;34.40;94.10
13808;DHT22;40769;51.512;5.494;2022-08-01T15:41:42;34.40;93.60
13808;DHT22;40769;51.512;5.494;2022-08-01T15:44:08;34.40;93.20
13808;DHT22;40769;51.512;5.494;2022-08-01T15:46:33;34.30;92.60
13808;DHT22;40769;51.512;5.494;2022-08-01T15:49:06;34.00;92.20
13808;DHT22;40769;51.512;5.494;2022-08-01T15:51:32;33.70;91.80
13808;DHT22;40769;51.512;5.494;2022-08-01T15:53:58;33.50;92.20
13808;DHT22;40769;51.512;5.494;2022-08-01T15:56:28;33.30;92.80
13808;DHT22;40769;51.512;5.494;2022-08-01T15:58:54;33.30;92.90
13808;DHT22;40769;51.512;5.494;2022-08-01T16:01:20;33.30;93.90
13808;DHT22;40769;51.512;5.494;2022-08-01T16:03:46;33.30;93.30